createdAt,value
2018-02-03T00:02:22.171Z,40.16
2018-02-03T00:04:49.753Z,39.75
2018-02-03T00:07:17.388Z,40.02
2018-02-03T00:09:45.334Z,40.05
2018-02-03T00:12:12.886Z,40.02
2018-02-03T00:14:40.411Z,40.03
2018-02-03T00:17:07.929Z,40.01
2018-02-03T00:19:35.522Z,39.89
2018-02-03T00:22:03.034Z,39.82
2018-02-03T00:24:30.547Z,40.00
2018-02-03T00:26:58.208Z,39.92
2018-02-03T00:29:25.788Z,39.77
2018-02-03T00:31:53.374Z,39.67
2018-02-03T00:34:20.899Z,39.28
2018-02-03T00:36:48.497Z,39.78
2018-02-03T00:39:16.085Z,40.01
2018-02-03T00:41:43.655Z,39.68
2018-02-03T00:44:11.176Z,39.31
2018-02-03T00:46:38.758Z,39.35
2018-02-03T00:49:06.349Z,39.35
2018-02-03T00:51:33.957Z,39.64
2018-02-03T00:54:01.477Z,39.16
2018-02-03T00:56:30.184Z,39.47
2018-02-03T00:58:57.715Z,39.16
2018-02-03T01:01:25.238Z,39.02
2018-02-03T01:03:52.830Z,38.75
2018-02-03T01:06:20.433Z,39.08
2018-02-03T01:08:48.073Z,39.47
2018-02-03T01:11:15.665Z,39.37
2018-02-03T01:13:43.248Z,39.40
2018-02-03T01:16:10.888Z,39.05
2018-02-03T01:18:38.500Z,38.80
2018-02-03T01:21:06.145Z,39.16
2018-02-03T01:23:33.737Z,38.72
2018-02-03T01:26:01.340Z,39.19
2018-02-03T01:28:28.976Z,39.00
2018-02-03T01:30:56.574Z,39.03
2018-02-03T01:33:24.157Z,38.77
2018-02-03T01:35:51.804Z,38.83
2018-02-03T01:38:19.385Z,38.15
2018-02-03T01:40:46.968Z,38.69
2018-02-03T01:43:14.543Z,38.68
2018-02-03T01:45:42.139Z,38.40
2018-02-03T01:48:09.785Z,38.76
2018-02-03T01:50:37.298Z,38.78
2018-02-03T01:53:04.889Z,38.62
2018-02-03T01:55:32.468Z,38.80
2018-02-03T01:58:00.129Z,38.61
2018-02-03T02:00:27.711Z,38.08
2018-02-03T02:02:55.343Z,38.06
2018-02-03T02:05:22.869Z,38.27
2018-02-03T02:07:50.505Z,38.54
2018-02-03T02:10:18.076Z,38.65
2018-02-03T02:12:45.591Z,38.61
2018-02-03T02:15:13.272Z,38.37
2018-02-03T02:17:40.961Z,38.64
2018-02-03T02:20:08.483Z,38.55
2018-02-03T02:22:36.059Z,38.68
2018-02-03T02:25:03.682Z,38.66
2018-02-03T02:27:31.277Z,38.47
2018-02-03T02:29:58.803Z,38.68
2018-02-03T02:32:26.394Z,38.13
2018-02-03T02:34:53.906Z,38.27
2018-02-03T02:37:21.433Z,38.61
2018-02-03T02:39:49.120Z,38.66
2018-02-03T02:42:16.808Z,38.72
2018-02-03T02:44:44.388Z,38.55
2018-02-03T02:47:11.984Z,38.49
2018-02-03T02:49:39.511Z,38.43
2018-02-03T02:52:07.173Z,38.41
2018-02-03T02:54:34.707Z,38.43
2018-02-03T02:57:02.349Z,38.52
2018-02-03T02:59:29.937Z,38.65
2018-02-03T03:01:57.519Z,38.63
2018-02-03T03:04:25.042Z,38.65
2018-02-03T03:06:52.619Z,38.70
2018-02-03T03:09:20.239Z,38.64
2018-02-03T03:11:47.819Z,38.61
2018-02-03T03:14:15.335Z,38.30
2018-02-03T03:16:42.929Z,38.33
2018-02-03T03:19:10.523Z,37.82
2018-02-03T03:21:38.058Z,37.70
2018-02-03T03:24:05.704Z,38.08
2018-02-03T03:26:33.284Z,38.22
2018-02-03T03:29:01.028Z,38.26
2018-02-03T03:31:28.600Z,37.72
2018-02-03T03:33:56.245Z,38.17
2018-02-03T03:36:23.771Z,38.13
2018-02-03T03:38:51.367Z,37.96
2018-02-03T03:41:18.892Z,37.88
2018-02-03T03:43:46.410Z,37.79
2018-02-03T03:46:13.988Z,38.04
2018-02-03T03:48:41.582Z,37.83
2018-02-03T03:51:09.185Z,37.49
2018-02-03T03:53:36.840Z,37.91
2018-02-03T03:56:04.369Z,37.97
2018-02-03T03:58:31.972Z,37.62
2018-02-03T04:00:59.547Z,37.50
2018-02-03T04:03:27.083Z,37.29
2018-02-03T04:05:54.664Z,37.07
2018-02-03T04:08:22.273Z,36.85
2018-02-03T04:10:49.909Z,37.06
2018-02-03T04:13:17.422Z,37.22
2018-02-03T04:15:45.095Z,36.76
2018-02-03T04:18:12.688Z,36.89
2018-02-03T04:20:40.273Z,36.75
2018-02-03T04:23:07.856Z,37.01
2018-02-03T04:25:35.439Z,36.48
2018-02-03T04:28:03.092Z,36.58
2018-02-03T04:30:30.689Z,36.34
2018-02-03T04:32:58.368Z,36.30
2018-02-03T04:35:25.948Z,36.42
2018-02-03T04:37:53.604Z,36.68
2018-02-03T04:40:21.186Z,36.61
2018-02-03T04:42:48.703Z,36.71
2018-02-03T04:45:16.300Z,36.92
2018-02-03T04:47:43.923Z,37.00
2018-02-03T04:50:11.564Z,37.13
2018-02-03T04:52:39.204Z,36.63
2018-02-03T04:55:06.843Z,36.84
2018-02-03T04:57:34.420Z,36.96
2018-02-03T05:00:01.951Z,36.66
2018-02-03T05:02:29.531Z,36.76
2018-02-03T05:04:57.119Z,36.99
2018-02-03T05:07:24.752Z,37.08
2018-02-03T05:09:52.343Z,37.10
2018-02-03T05:12:20.056Z,37.05
2018-02-03T05:14:47.573Z,37.03
2018-02-03T05:17:15.230Z,37.13
2018-02-03T05:19:42.912Z,36.84
2018-02-03T05:22:10.495Z,36.99
2018-02-03T05:24:38.080Z,37.28
2018-02-03T05:27:05.728Z,37.21
2018-02-03T05:29:33.322Z,37.06
2018-02-03T05:32:00.839Z,37.23
2018-02-03T05:34:28.473Z,37.10
2018-02-03T05:36:56.112Z,37.18
2018-02-03T05:39:23.720Z,37.21
2018-02-03T05:41:51.305Z,37.23
2018-02-03T05:44:18.925Z,37.02
2018-02-03T05:46:46.474Z,37.18
2018-02-03T05:49:14.124Z,37.12
2018-02-03T05:51:41.744Z,37.22
2018-02-03T05:54:09.380Z,37.27
2018-02-03T05:56:36.981Z,37.22
2018-02-03T05:59:04.563Z,37.28
2018-02-03T06:01:32.140Z,37.33
2018-02-03T06:03:59.783Z,37.34
2018-02-03T06:06:27.369Z,37.41
2018-02-03T06:08:55.161Z,37.63
2018-02-03T06:11:22.769Z,37.69
2018-02-03T06:13:50.280Z,37.66
2018-02-03T06:16:17.857Z,37.48
2018-02-03T06:18:45.375Z,37.74
2018-02-03T06:21:12.973Z,37.71
2018-02-03T06:23:40.632Z,37.79
2018-02-03T06:26:08.281Z,37.68
2018-02-03T06:28:35.936Z,37.95
2018-02-03T06:31:03.516Z,37.95
2018-02-03T06:33:31.398Z,38.29
2018-02-03T06:35:59.076Z,38.29
2018-02-03T06:38:26.717Z,38.45
2018-02-03T06:40:54.242Z,38.58
2018-02-03T06:43:21.880Z,38.90
2018-02-03T06:45:49.513Z,38.82
2018-02-03T06:48:17.186Z,39.53
2018-02-03T06:50:45.682Z,39.25
2018-02-03T06:53:16.446Z,39.06
2018-02-03T06:55:44.167Z,38.77
2018-02-03T06:58:11.821Z,39.34
2018-02-03T07:00:39.474Z,39.68
2018-02-03T07:03:07.129Z,39.62
2018-02-03T07:05:34.976Z,40.45
2018-02-03T07:08:02.495Z,40.18
2018-02-03T07:10:30.441Z,39.68
2018-02-03T07:12:58.208Z,39.97
2018-02-03T07:15:25.929Z,39.96
2018-02-03T07:17:53.596Z,39.59
2018-02-03T07:20:21.177Z,39.47
2018-02-03T07:22:48.864Z,39.61
2018-02-03T07:25:16.641Z,38.99
2018-02-03T07:27:44.288Z,38.87
2018-02-03T07:30:11.961Z,38.95
2018-02-03T07:32:39.666Z,38.48
2018-02-03T07:35:07.263Z,38.36
2018-02-03T07:37:34.921Z,38.16
2018-02-03T07:40:02.538Z,38.34
2018-02-03T07:42:30.182Z,38.26
2018-02-03T07:44:57.927Z,38.49
2018-02-03T07:47:26.354Z,38.36
2018-02-03T07:49:54.006Z,38.14
2018-02-03T07:52:21.671Z,38.35
2018-02-03T07:54:49.319Z,38.12
2018-02-03T07:57:16.972Z,37.99
2018-02-03T07:59:44.573Z,37.77
2018-02-03T08:02:12.278Z,37.50
2018-02-03T08:04:39.944Z,37.80
2018-02-03T08:07:07.485Z,37.51
2018-02-03T08:09:35.217Z,37.90
2018-02-03T08:12:02.807Z,38.27
2018-02-03T08:14:30.420Z,39.29
2018-02-03T08:16:58.530Z,39.73
2018-02-03T08:19:26.124Z,39.39
2018-02-03T08:21:53.773Z,38.63
2018-02-03T08:24:21.437Z,39.32
2018-02-03T08:26:48.960Z,38.74
2018-02-03T08:29:16.488Z,38.86
2018-02-03T08:31:44.116Z,39.13
2018-02-03T08:34:11.746Z,39.15
2018-02-03T08:36:39.339Z,39.32
2018-02-03T08:39:07.034Z,39.46
2018-02-03T08:41:34.674Z,39.63
2018-02-03T08:44:02.329Z,39.62
2018-02-03T08:46:29.960Z,40.15
2018-02-03T08:48:57.552Z,40.47
2018-02-03T08:51:25.076Z,40.58
2018-02-03T08:53:52.766Z,41.00
2018-02-03T08:56:20.406Z,41.05
2018-02-03T08:58:47.994Z,40.17
2018-02-03T09:01:15.645Z,39.96
2018-02-03T09:03:43.289Z,39.33
2018-02-03T09:06:11.120Z,39.11
2018-02-03T09:08:38.738Z,38.76
2018-02-03T09:11:06.444Z,38.52
2018-02-03T09:13:34.100Z,38.36
2018-02-03T09:16:01.796Z,38.17
2018-02-03T09:18:29.461Z,38.03
2018-02-03T09:20:57.088Z,37.92
2018-02-03T09:23:24.775Z,37.70
2018-02-03T09:25:52.440Z,37.52
2018-02-03T09:28:20.097Z,37.36
2018-02-03T09:30:47.728Z,37.53
2018-02-03T09:33:15.385Z,36.92
2018-02-03T09:35:42.987Z,36.65
2018-02-03T09:38:10.623Z,36.42
2018-02-03T09:40:38.284Z,36.43
2018-02-03T09:43:05.820Z,35.86
2018-02-03T09:45:33.480Z,35.60
2018-02-03T09:48:01.206Z,35.53
2018-02-03T09:50:28.926Z,35.70
2018-02-03T09:52:56.521Z,35.89
2018-02-03T09:55:24.163Z,36.73
2018-02-03T09:57:51.769Z,36.60
2018-02-03T10:00:19.352Z,36.56
2018-02-03T10:02:46.993Z,36.58
2018-02-03T10:05:14.599Z,36.60
2018-02-03T10:07:42.250Z,37.04
2018-02-03T10:10:10.116Z,37.13
2018-02-03T10:12:37.647Z,37.05
2018-02-03T10:15:05.369Z,37.22
2018-02-03T10:17:32.986Z,36.95
2018-02-03T10:20:00.600Z,37.08
2018-02-03T10:22:28.291Z,37.43
2018-02-03T10:24:55.823Z,37.40
2018-02-03T10:27:23.583Z,37.91
2018-02-03T10:29:51.595Z,37.82
2018-02-03T10:32:19.227Z,37.70
2018-02-03T10:34:47.138Z,37.89
2018-02-03T10:37:14.841Z,38.08
2018-02-03T10:39:42.578Z,38.07
2018-02-03T10:42:10.135Z,38.17
2018-02-03T10:44:42.396Z,38.31
2018-02-03T10:47:10.000Z,38.40
2018-02-03T10:49:37.660Z,38.48
2018-02-03T10:52:05.235Z,38.57
2018-02-03T10:54:32.885Z,38.33
2018-02-03T10:57:00.548Z,38.28
2018-02-03T10:59:28.189Z,38.72
2018-02-03T11:01:56.496Z,38.38
2018-02-03T11:04:24.193Z,38.34
2018-02-03T11:06:51.852Z,39.17
2018-02-03T11:09:19.441Z,38.33
2018-02-03T11:11:47.092Z,38.07
2018-02-03T11:14:14.662Z,37.90
2018-02-03T11:16:42.213Z,37.76
2018-02-03T11:19:09.766Z,37.77
2018-02-03T11:21:37.433Z,37.62
2018-02-03T11:24:05.369Z,37.70
2018-02-03T11:26:33.373Z,37.75
2018-02-03T11:29:01.017Z,37.56
2018-02-03T11:31:28.571Z,37.70
2018-02-03T11:33:56.316Z,38.39
2018-02-03T11:36:23.989Z,38.51
2018-02-03T11:38:51.517Z,38.52
2018-02-03T11:41:19.170Z,38.43
2018-02-03T11:43:46.819Z,38.20
2018-02-03T11:46:14.437Z,38.26
2018-02-03T11:48:42.074Z,38.09
2018-02-03T11:51:09.739Z,38.11
2018-02-03T11:53:37.397Z,38.13
2018-02-03T11:56:05.015Z,38.10
2018-02-03T11:58:32.834Z,37.96
2018-02-03T12:01:00.371Z,38.02
2018-02-03T12:03:28.086Z,38.29
2018-02-03T12:05:55.811Z,38.93
2018-02-03T12:08:23.518Z,38.96
2018-02-03T12:10:51.258Z,38.82
2018-02-03T12:13:18.845Z,39.38
2018-02-03T12:15:46.448Z,39.37
2018-02-03T12:18:14.100Z,38.84
2018-02-03T12:20:41.760Z,38.66
2018-02-03T12:23:09.362Z,38.44
2018-02-03T12:25:36.962Z,38.91
2018-02-03T12:28:04.609Z,38.39
2018-02-03T12:30:32.268Z,38.79
2018-02-03T12:32:59.871Z,38.48
2018-02-03T12:35:27.470Z,38.63
2018-02-03T12:37:55.003Z,38.74
2018-02-03T12:40:22.537Z,38.75
2018-02-03T12:42:50.105Z,39.01
2018-02-03T12:45:17.639Z,39.91
2018-02-03T12:47:45.388Z,40.66
2018-02-03T12:50:13.093Z,41.21
2018-02-03T12:52:40.727Z,42.30
2018-02-03T12:55:08.263Z,41.42
2018-02-03T12:57:35.841Z,41.28
2018-02-03T13:00:03.456Z,40.91
2018-02-03T13:02:31.132Z,40.88
2018-02-03T13:04:58.722Z,40.80
2018-02-03T13:07:26.339Z,40.88
2018-02-03T13:09:53.945Z,40.90
2018-02-03T13:12:21.636Z,41.09
2018-02-03T13:14:49.174Z,41.06
2018-02-03T13:17:16.710Z,41.00
2018-02-03T13:19:44.349Z,41.04
2018-02-03T13:22:11.931Z,41.06
2018-02-03T13:24:39.486Z,41.24
2018-02-03T13:27:07.125Z,41.28
2018-02-03T13:29:34.733Z,41.32
2018-02-03T13:32:02.263Z,41.42
2018-02-03T13:34:29.916Z,41.47
2018-02-03T13:36:57.454Z,41.38
2018-02-03T13:39:25.028Z,41.44
2018-02-03T13:41:52.558Z,41.45
2018-02-03T13:44:20.161Z,41.48
2018-02-03T13:46:47.864Z,41.44
2018-02-03T13:49:15.476Z,41.46
2018-02-03T13:51:43.006Z,41.50
2018-02-03T13:54:10.672Z,41.64
2018-02-03T13:56:38.276Z,41.72
2018-02-03T13:59:05.876Z,41.61
2018-02-03T14:01:33.513Z,41.76
2018-02-03T14:04:01.128Z,41.65
2018-02-03T14:06:28.788Z,41.66
2018-02-03T14:08:56.363Z,41.61
2018-02-03T14:11:24.008Z,41.61
2018-02-03T14:13:51.640Z,41.62
2018-02-03T14:16:19.331Z,41.73
2018-02-03T14:18:46.958Z,41.68
2018-02-03T14:21:14.491Z,41.77
2018-02-03T14:23:42.140Z,41.79
2018-02-03T14:26:14.434Z,41.80
2018-02-03T14:28:42.000Z,41.87
2018-02-03T14:31:09.652Z,41.77
2018-02-03T14:33:37.198Z,41.82
2018-02-03T14:36:04.803Z,41.84
2018-02-03T14:38:32.384Z,41.99
2018-02-03T14:41:00.082Z,41.77
2018-02-03T14:43:27.653Z,41.96
2018-02-03T14:45:55.308Z,42.28
2018-02-03T14:48:22.838Z,41.45
2018-02-03T14:50:50.489Z,41.64
2018-02-03T14:53:18.144Z,41.66
2018-02-03T14:55:45.696Z,42.20
2018-02-03T14:58:13.392Z,42.18
2018-02-03T15:00:40.994Z,42.37
2018-02-03T15:03:08.552Z,42.50
2018-02-03T15:05:36.121Z,42.69
2018-02-03T15:08:03.654Z,42.46
2018-02-03T15:10:31.276Z,42.51
2018-02-03T15:12:58.935Z,42.42
2018-02-03T15:15:26.466Z,42.57
2018-02-03T15:17:54.044Z,42.66
2018-02-03T15:20:21.680Z,42.70
2018-02-03T15:22:49.335Z,42.75
2018-02-03T15:25:16.930Z,42.67
2018-02-03T15:27:44.565Z,42.65
2018-02-03T15:30:12.176Z,42.66
2018-02-03T15:32:39.749Z,43.12
2018-02-03T15:35:07.401Z,43.69
2018-02-03T15:37:34.995Z,44.11
2018-02-03T15:40:02.624Z,43.85
2018-02-03T15:42:30.325Z,43.73
2018-02-03T15:44:57.855Z,43.18
2018-02-03T15:47:25.374Z,42.56
2018-02-03T15:49:53.063Z,42.59
2018-02-03T15:52:20.668Z,41.89
2018-02-03T15:54:48.263Z,41.74
2018-02-03T15:57:15.933Z,40.95
2018-02-03T15:59:43.458Z,40.89
2018-02-03T16:02:11.053Z,40.86
2018-02-03T16:04:38.704Z,40.82
2018-02-03T16:07:06.412Z,40.82
2018-02-03T16:09:34.112Z,40.83
2018-02-03T16:12:01.839Z,40.58
2018-02-03T16:14:29.496Z,40.67
2018-02-03T16:16:57.137Z,40.47
2018-02-03T16:19:24.662Z,40.32
2018-02-03T16:21:52.312Z,40.45
2018-02-03T16:24:19.957Z,40.23
2018-02-03T16:26:47.609Z,40.25
2018-02-03T16:29:15.249Z,40.25
2018-02-03T16:31:43.246Z,40.01
2018-02-03T16:34:10.896Z,39.87
2018-02-03T16:36:38.490Z,39.94
2018-02-03T16:39:06.137Z,40.02
2018-02-03T16:41:33.732Z,40.49
2018-02-03T16:44:01.324Z,40.67
2018-02-03T16:46:28.919Z,41.12
2018-02-03T16:48:56.443Z,40.88
2018-02-03T16:51:24.068Z,41.23
2018-02-03T16:53:51.832Z,41.01
2018-02-03T16:56:31.275Z,41.51
2018-02-03T16:58:58.976Z,42.00
2018-02-03T17:01:26.499Z,41.95
2018-02-03T17:03:54.025Z,42.12
2018-02-03T17:06:21.712Z,43.13
2018-02-03T17:08:49.360Z,43.35
2018-02-03T17:11:17.012Z,43.59
2018-02-03T17:13:44.698Z,43.76
2018-02-03T17:16:12.289Z,45.09
2018-02-03T17:18:39.973Z,44.64
2018-02-03T17:21:07.608Z,46.37
2018-02-03T17:23:35.167Z,45.53
2018-02-03T17:26:02.756Z,46.67
2018-02-03T17:28:30.460Z,46.12
2018-02-03T17:30:58.130Z,46.29
2018-02-03T17:33:25.698Z,47.26
2018-02-03T17:35:53.279Z,46.58
2018-02-03T17:38:26.794Z,45.36
2018-02-03T17:40:54.543Z,45.19
2018-02-03T17:43:22.185Z,45.54
2018-02-03T17:48:50.746Z,45.03
2018-02-03T17:51:18.440Z,44.29
2018-02-03T17:53:45.991Z,44.13
2018-02-03T17:56:19.030Z,44.12
2018-02-03T17:58:46.685Z,46.07
2018-02-03T18:01:14.353Z,44.64
2018-02-03T18:03:41.984Z,44.32
2018-02-03T18:06:09.672Z,43.49
2018-02-03T18:08:37.305Z,43.57
2018-02-03T18:11:04.839Z,44.96
2018-02-03T18:13:32.477Z,44.74
2018-02-03T18:16:00.145Z,45.52
2018-02-03T18:18:27.943Z,44.88
2018-02-03T18:20:56.383Z,45.34
2018-02-03T18:23:24.060Z,44.67
2018-02-03T18:25:51.595Z,44.34
2018-02-03T18:28:19.123Z,45.31
2018-02-03T18:30:46.844Z,46.22
2018-02-03T18:33:14.452Z,45.27
2018-02-03T18:35:42.064Z,44.67
2018-02-03T18:38:09.634Z,44.79
2018-02-03T18:40:37.241Z,43.53
2018-02-03T18:43:04.904Z,42.94
2018-02-03T18:45:46.908Z,42.64
2018-02-03T18:48:16.799Z,42.55
2018-02-03T18:50:44.551Z,41.87
2018-02-03T18:53:12.212Z,42.12
2018-02-03T18:55:39.812Z,40.91
2018-02-03T18:58:07.426Z,41.49
2018-02-03T19:00:35.078Z,40.78
2018-02-03T19:03:02.627Z,41.44
2018-02-03T19:05:30.257Z,40.71
2018-02-03T19:07:57.826Z,41.52
2018-02-03T19:10:25.491Z,40.86
2018-02-03T19:12:53.227Z,41.08
2018-02-03T19:15:20.875Z,40.42
2018-02-03T19:17:48.682Z,40.50
2018-02-03T19:20:16.340Z,40.75
2018-02-03T19:22:44.009Z,41.14
2018-02-03T19:25:11.727Z,41.44
2018-02-03T19:27:39.249Z,42.22
2018-02-03T19:30:06.897Z,42.50
2018-02-03T19:32:34.512Z,42.89
2018-02-03T19:35:02.114Z,42.82
2018-02-03T19:37:29.751Z,43.44
2018-02-03T19:39:57.379Z,43.44
2018-02-03T19:42:25.021Z,42.89
2018-02-03T19:44:52.695Z,43.06
2018-02-03T19:47:20.237Z,43.09
2018-02-03T19:49:47.770Z,42.81
2018-02-03T19:52:15.339Z,43.13
2018-02-03T19:54:42.940Z,43.83
2018-02-03T19:57:10.495Z,43.75
2018-02-03T19:59:38.160Z,43.67
2018-02-03T20:02:05.832Z,42.92
2018-02-03T20:04:33.390Z,43.64
2018-02-03T20:07:01.040Z,43.97
2018-02-03T20:09:28.566Z,43.84
2018-02-03T20:17:00.112Z,44.33
2018-02-03T20:19:28.828Z,44.75
2018-02-03T20:21:56.551Z,45.06
2018-02-03T20:24:24.224Z,45.34
2018-02-03T20:26:52.470Z,44.66
2018-02-03T20:29:20.233Z,45.84
2018-02-03T20:31:47.836Z,44.88
2018-02-03T20:34:15.543Z,45.56
2018-02-03T20:36:43.172Z,44.67
2018-02-03T20:39:10.794Z,45.08
2018-02-03T20:41:38.485Z,44.39
2018-02-03T20:44:06.118Z,44.82
2018-02-03T20:46:33.718Z,44.41
2018-02-03T20:49:01.307Z,44.45
2018-02-03T20:51:28.836Z,44.03
2018-02-03T20:53:56.486Z,43.97
2018-02-03T20:56:24.120Z,43.96
2018-02-03T20:58:51.642Z,44.07
2018-02-03T21:01:19.401Z,44.22
2018-02-03T21:03:47.004Z,43.96
2018-02-03T21:06:14.621Z,44.09
2018-02-03T21:08:42.340Z,44.57
2018-02-03T21:11:09.980Z,44.41
2018-02-03T21:13:37.586Z,44.10
2018-02-03T21:16:05.305Z,43.69
2018-02-03T21:18:32.905Z,43.91
2018-02-03T21:21:00.513Z,43.73
2018-02-03T21:23:28.087Z,43.81
2018-02-03T21:25:55.813Z,43.69
2018-02-03T21:28:23.462Z,43.77
2018-02-03T21:30:51.079Z,43.78
2018-02-03T21:33:18.604Z,44.00
2018-02-03T21:35:46.147Z,44.05
2018-02-03T21:38:13.872Z,43.98
2018-02-03T21:40:41.404Z,43.78
2018-02-03T21:43:08.990Z,43.92
2018-02-03T21:45:36.645Z,43.80
2018-02-03T21:48:04.252Z,44.08
2018-02-03T21:50:31.791Z,43.80
2018-02-03T21:52:59.480Z,44.08
2018-02-03T21:55:27.343Z,44.07
2018-02-03T21:57:54.953Z,44.15
2018-02-03T22:00:22.667Z,43.81
2018-02-03T22:02:50.373Z,44.08
2018-02-03T22:05:18.000Z,44.01
2018-02-03T22:07:45.907Z,44.39
2018-02-03T22:10:13.683Z,43.80
2018-02-03T22:12:41.516Z,44.03
2018-02-03T22:15:09.165Z,43.81
2018-02-03T22:17:36.851Z,43.99
2018-02-03T22:20:04.452Z,43.96
2018-02-03T22:22:32.185Z,43.99
2018-02-03T22:24:59.800Z,43.79
2018-02-03T22:27:27.336Z,43.65
2018-02-03T22:29:54.934Z,43.58
2018-02-03T22:32:22.553Z,43.84
2018-02-03T22:34:50.084Z,43.60
2018-02-03T22:37:17.671Z,43.91
2018-02-03T22:39:45.320Z,43.47
2018-02-03T22:42:13.004Z,43.69
2018-02-03T22:44:40.761Z,43.48
2018-02-03T22:47:08.349Z,43.47
2018-02-03T22:49:36.019Z,43.36
2018-02-03T22:52:03.628Z,43.60
2018-02-03T22:54:31.277Z,43.15
2018-02-03T22:56:58.933Z,43.36
2018-02-03T22:59:26.531Z,43.11
2018-02-03T23:01:54.054Z,42.86
2018-02-03T23:04:21.709Z,42.94
2018-02-03T23:06:49.348Z,43.01
2018-02-03T23:09:16.960Z,43.02
2018-02-03T23:11:44.773Z,42.99
2018-02-03T23:14:12.355Z,43.14
2018-02-03T23:16:39.971Z,42.95
2018-02-03T23:19:07.641Z,43.12
2018-02-03T23:21:35.276Z,43.23
2018-02-03T23:24:03.140Z,42.97
2018-02-03T23:26:30.735Z,43.11
2018-02-03T23:28:58.370Z,43.09
2018-02-03T23:31:25.964Z,43.00
2018-02-03T23:33:53.555Z,42.99
2018-02-03T23:36:21.190Z,42.97
2018-02-03T23:38:48.817Z,42.90
2018-02-03T23:41:16.418Z,43.18
2018-02-03T23:43:44.052Z,42.94
2018-02-03T23:46:11.928Z,43.21
2018-02-03T23:48:39.479Z,43.01
2018-02-03T23:51:07.210Z,43.00
2018-02-03T23:53:34.733Z,43.16
2018-02-03T23:56:02.377Z,42.89
2018-02-03T23:58:30.951Z,42.94
